LELCLEAL

Guest
Details From LELC - Murcia San Javier
To LEAL - Alicante
Flight Number -
Tags Routegen Generated
Created
Modified
Stats Distance 38 nm / 71 km
Max Altitude 100 ft / 30 m
Waypoints 5
Social Downloads 4
Likes 0
Share

Download

Looking for another format? Having issues loading an existing format? Contact us
Advertisement - Login to hide

Notes

Departing runway 4 LELC. Arriving runway 10 LEAL.

Route

LELC +37.83_+000.74 +38.05_+000.59 +38.27_+000.45 LEAL

ID Type Via Altitude (ft/m) Position (lat/lon) Dist (leg/tot) Name
O LELC APT - 0 / 0 37.78219 / -0.80283 - / 0 nm
+37.83_+000.74 LATLON - 100 / 30 37.83277 / -0.73732 4 / 4 nm
+38.05_+000.59 LATLON - 100 / 30 38.04994 / -0.59394 14 / 19 nm
+38.27_+000.45 LATLON - 100 / 30 38.26711 / -0.45057 14 / 33 nm
O LEAL APT - 0 / 0 38.27982 / -0.54132 4 / 38 nm

Altitude Profile

Advertisement - Login to hide

LELC

Details ICAO LELC (MJV)
Name Murcia San Javier
Region Spain
Timezone Europe/Madrid (UTC+2.0)
Stats Elevation 29 ft / 9 m (AMSL)
Location 37.775000° -0.812500°
Runways 2
Magnetic Variation 0.540° E

METAR

LELC 171130Z VRB02KT 9999 FEW020 24/18 Q1018 NOSIG

Decode

TAF

TAF LELC 170500Z 1706/1806 34004KT 9999 FEW020 TX25/1713Z TN18/1806Z BECMG 1708/1711 12010KT BECMG 1719/1722 31004KT

Decode

Departure Runways

ID Width Length Bearing (true/mag) Surface Threshold Overrun Markings Lighting
05L 148 ft / 45 m 5,173 ft / 1,577 m 45.63° / 45.09° ASPHALT 0 ft / 0 m 646 ft / 197 m NONE
05R 148 ft / 45 m 7,611 ft / 2,320 m 45.64° / 45.10° ASPHALT 0 ft / 0 m 600 ft / 183 m PREC-APP EDGE THRESHOLD REIL-OMNI
23L 148 ft / 45 m 7,611 ft / 2,320 m 225.66° / 225.12° ASPHALT 0 ft / 0 m 617 ft / 188 m PREC-APP EDGE THRESHOLD REIL-OMNI
23R 148 ft / 45 m 5,173 ft / 1,577 m 225.64° / 225.10° ASPHALT 0 ft / 0 m 748 ft / 228 m NONE

LEAL

Details ICAO LEAL (ALC)
Name Alicante-Elche "El Altet"
Region Spain
Timezone Europe/Madrid (UTC+2.0)
Stats Elevation 142 ft / 43 m (AMSL)
Location 38.282200° -0.558114°
Runways 1
Magnetic Variation 0.606° E

METAR

LEAL 171130Z VRB01KT 9999 BKN022 24/17 Q1018 NOSIG

Decode

TAF

TAF TAF LEAL 170500Z 1706/1806 VRB04KT 9999 SCT020 TX25/1712Z TN17/1706Z PROB30 1706/1712 RA FEW010TCU BKN014 BECMG 1710/1712 09010KT BECMG 1718/1720 VRB04KT

Decode

Destination Runways

ID Width Length Bearing (true/mag) Surface Threshold Overrun Markings Lighting
10 148 ft / 45 m 9,828 ft / 2,996 m 100.08° / 99.47° ASPHALT 0 ft / 0 m 0 ft / 0 m PREC-APP CENTERLINE EDGE THRESHOLD CALVERT-ILS REIL-OMNI
28 148 ft / 45 m 9,828 ft / 2,996 m 280.10° / 279.49° ASPHALT 0 ft / 0 m 0 ft / 0 m PREC-APP CENTERLINE EDGE THRESHOLD CALVERT-ILS REIL-OMNI

Approach Navaids

Runway Type Ident Frequency Range Bearing (true/mag) Slope Elevation
10 LOC-ILS IAT 110.30 MHz 18 nm / 33 km 100.09° / 99.49 ° - 29 ft / 9 m (AMSL)
10 GS IAT 110.30 MHz 10 nm / 19 km 100.19° / 99.58 ° 3.00° 129 ft / 39 m (AMSL)
10 DME IAT 110.30 MHz 18 nm / 33 km - - 129 ft / 39 m (AMSL)

Popular Alternatives